Accueil
METAR-TAF:

METAR-TAF

Aéroports :

Aéroport de Toulon-Hyères

Toulon, France

latitude: 43-06N, longitude: 006-09E, altitude: 3 m

Observation

Le bulletin a été fait il y a 27 minutes, à 08:00 UTC
Vent 6 kt de nord/nord-ouest
Température 13°C
Humidité 67%
Pression 1022 hPa
Visibilité 10 km ou plus
Ciel couvert à une hauteur de 3000 ft

METAR: LFTH 060800Z AUTO 34006KT 9999 OVC030 13/07 Q1022 NOSIG

Heure: 09:27 (08:27 UTC)

Prévision

Le bulletin a été fait il y a 6 heures et 27 minutes, à 02:00 UTC
Prévision valable du 06 à 03 UTC au 07 à 03 UTC
Vent 10 kt de nord/nord-est
Visibilité 10 km ou plus
Nuages fragmentés à une hauteur de 3000 ft
Probabilité 30% :
Temporairement
du 06 à 03 UTC au 06 à 04 UTC
averses de pluie
Evoluant progressivement
du 06 à 11 UTC au 06 à 13 UTC
Vent 5 kt de direction variable

TAF: LFTH 060200Z 0603/0703 02010KT 9999 BKN030 PROB30 TEMPO 0603/0604 SHRA BECMG 0611/0613 VRB05KT NSC

Observations et prévisions météorologiques de plus de 4000 aéroports (messages METAR et TAF).

Les stations disponibles sont représentées par des disques jaunes et rouges sur la carte.

Passer la souris dessus pour voir le nom de la station.

Cliquer dessus pour voir les observations et prévisions météorologiques.

Pour changer de carte: cliquez sur les boutons verts avec une croix noire pour zoomer, sur le bouton vert avec un tiret pour effectuer un zoom arrière, ou sur les flèches vertes pour les cartes adjacentes.


METAR-TAF: